createdAt,value
2018-01-08T00:01:40.911Z,10.47
2018-01-08T00:04:09.320Z,10.83
2018-01-08T00:06:37.641Z,10.80
2018-01-08T00:09:05.988Z,8.50
2018-01-08T00:11:34.318Z,9.97
2018-01-08T00:14:03.428Z,9.87
2018-01-08T00:16:32.505Z,10.87
2018-01-08T00:19:01.620Z,5.67
2018-01-08T00:21:29.978Z,9.07
2018-01-08T00:23:58.320Z,9.20
2018-01-08T00:26:26.633Z,9.53
2018-01-08T00:28:54.975Z,6.33
2018-01-08T00:31:23.279Z,8.10
2018-01-08T00:33:52.374Z,10.50
2018-01-08T00:36:20.712Z,11.03
2018-01-08T00:38:49.030Z,7.67
2018-01-08T00:41:17.357Z,10.10
2018-01-08T00:43:45.685Z,10.17
2018-01-08T00:46:14.028Z,10.00
2018-01-08T00:48:42.383Z,10.43
2018-01-08T00:51:10.739Z,10.80
2018-01-08T00:53:39.076Z,11.13
2018-01-08T00:56:07.433Z,10.60
2018-01-08T00:58:35.770Z,10.07
2018-01-08T01:01:04.099Z,9.37
2018-01-08T01:03:32.451Z,10.37
2018-01-08T01:06:01.544Z,8.07
2018-01-08T01:08:29.882Z,7.70
2018-01-08T01:10:58.199Z,7.97
2018-01-08T01:13:27.323Z,11.10
2018-01-08T01:15:55.644Z,9.53
2018-01-08T01:18:23.991Z,10.57
2018-01-08T01:20:52.297Z,7.90
2018-01-08T01:23:20.642Z,9.97
2018-01-08T01:25:48.960Z,9.67
2018-01-08T01:28:17.311Z,9.73
2018-01-08T01:30:45.618Z,9.90
2018-01-08T01:33:13.978Z,9.67
2018-01-08T01:35:42.319Z,11.20
2018-01-08T01:38:10.634Z,10.77
2018-01-08T01:40:38.986Z,9.40
2018-01-08T01:43:07.320Z,10.70
2018-01-08T01:45:35.693Z,10.90
2018-01-08T01:48:04.022Z,8.60
2018-01-08T01:50:32.361Z,7.50
2018-01-08T01:53:00.693Z,10.77
2018-01-08T01:55:29.045Z,10.30
2018-01-08T01:57:57.358Z,11.67
2018-01-08T02:00:25.690Z,7.93
2018-01-08T02:02:54.017Z,11.40
2018-01-08T02:05:22.415Z,11.30
2018-01-08T02:07:50.784Z,8.30
2018-01-08T02:10:19.108Z,11.50
2018-01-08T02:12:48.216Z,11.50
2018-01-08T02:15:16.541Z,7.27
2018-01-08T02:17:44.925Z,8.40
2018-01-08T02:20:13.229Z,11.87
2018-01-08T02:22:41.605Z,12.20
2018-01-08T02:25:10.707Z,11.80
2018-01-08T02:27:39.821Z,7.90
2018-01-08T02:30:08.138Z,9.80
2018-01-08T02:32:36.476Z,10.20
2018-01-08T02:35:04.804Z,9.30
2018-01-08T02:37:33.141Z,10.60
2018-01-08T02:40:01.489Z,12.17
2018-01-08T02:42:29.855Z,11.27
2018-01-08T02:44:58.187Z,10.60
2018-01-08T02:47:26.523Z,10.20
2018-01-08T02:49:54.857Z,9.30
2018-01-08T02:52:23.175Z,14.10
2018-01-08T02:54:51.537Z,11.00
2018-01-08T02:57:19.907Z,8.77
2018-01-08T02:59:48.231Z,9.83
2018-01-08T03:02:17.311Z,11.50
2018-01-08T03:04:45.641Z,9.80
2018-01-08T03:07:13.972Z,9.90
2018-01-08T03:09:42.311Z,9.70
2018-01-08T03:12:10.706Z,9.07
2018-01-08T03:14:39.034Z,10.90
2018-01-08T03:17:08.249Z,9.80
2018-01-08T03:19:36.570Z,11.17
2018-01-08T03:22:04.948Z,12.43
2018-01-08T03:24:33.272Z,8.73
2018-01-08T03:27:01.602Z,9.60
2018-01-08T03:29:29.922Z,11.67
2018-01-08T03:31:58.269Z,9.67
2018-01-08T03:34:26.617Z,13.20
2018-01-08T03:36:55.721Z,8.50
2018-01-08T03:39:24.122Z,9.03
2018-01-08T03:41:52.472Z,8.07
2018-01-08T03:44:20.800Z,7.17
2018-01-08T03:46:49.107Z,8.83
2018-01-08T03:49:17.503Z,11.87
2018-01-08T03:51:45.812Z,11.43
2018-01-08T03:54:14.156Z,11.47
2018-01-08T03:56:42.470Z,13.57
2018-01-08T03:59:10.810Z,10.57
2018-01-08T04:01:39.133Z,11.23
2018-01-08T04:04:07.471Z,12.17
2018-01-08T04:06:35.787Z,9.50
2018-01-08T04:09:04.113Z,9.93
2018-01-08T04:11:33.293Z,10.57
2018-01-08T04:14:02.400Z,13.00
2018-01-08T04:16:31.469Z,10.20
2018-01-08T04:19:00.600Z,13.93
2018-01-08T04:21:28.918Z,9.13
2018-01-08T04:23:57.217Z,9.63
2018-01-08T04:26:25.545Z,13.50
2018-01-08T04:28:53.847Z,11.70
2018-01-08T04:31:22.186Z,12.13
2018-01-08T04:33:51.261Z,9.47
2018-01-08T04:36:20.365Z,8.37
2018-01-08T04:38:49.439Z,9.60
2018-01-08T04:41:17.777Z,13.13
2018-01-08T04:43:46.084Z,13.37
2018-01-08T04:46:14.415Z,9.03
2018-01-08T04:48:43.494Z,12.63
2018-01-08T04:51:12.625Z,12.13
2018-01-08T04:53:40.936Z,13.37
2018-01-08T04:56:09.237Z,13.63
2018-01-08T04:58:37.579Z,10.13
2018-01-08T05:01:05.898Z,12.10
2018-01-08T05:03:34.994Z,8.50
2018-01-08T05:06:03.300Z,10.00
2018-01-08T05:08:31.632Z,14.23
2018-01-08T05:10:59.934Z,13.30
2018-01-08T05:13:29.035Z,14.80
2018-01-08T05:15:58.101Z,13.53
2018-01-08T05:18:26.446Z,12.93
2018-01-08T05:20:54.760Z,15.20
2018-01-08T05:23:23.081Z,10.10
2018-01-08T05:25:51.409Z,7.13
2018-01-08T05:28:19.716Z,13.73
2018-01-08T05:30:48.815Z,13.60
2018-01-08T05:33:17.886Z,9.63
2018-01-08T05:35:46.221Z,6.83
2018-01-08T05:38:14.533Z,14.67
2018-01-08T05:40:43.681Z,10.70
2018-01-08T05:43:11.999Z,16.10
2018-01-08T05:45:40.354Z,13.87
2018-01-08T05:48:08.674Z,12.47
2018-01-08T05:50:37.003Z,14.83
2018-01-08T05:53:06.089Z,14.13
2018-01-08T05:55:35.197Z,15.30
2018-01-08T05:58:03.521Z,9.53
2018-01-08T06:00:31.847Z,10.47
2018-01-08T06:03:00.204Z,14.87
2018-01-08T06:05:29.277Z,12.07
2018-01-08T06:07:57.596Z,13.87
2018-01-08T06:10:25.918Z,14.50
2018-01-08T06:12:54.248Z,13.53
2018-01-08T06:15:23.329Z,18.30
2018-01-08T06:17:52.441Z,16.43
2018-01-08T06:20:20.778Z,12.37
2018-01-08T06:22:49.112Z,23.33
2018-01-08T06:25:17.435Z,14.23
2018-01-08T06:27:45.787Z,16.90
2018-01-08T06:30:14.095Z,13.90
2018-01-08T06:32:42.441Z,18.03
2018-01-08T06:35:10.761Z,16.57
2018-01-08T06:37:39.076Z,14.97
2018-01-08T06:40:07.421Z,16.87
2018-01-08T06:42:36.522Z,12.10
2018-01-08T06:45:04.866Z,13.33
2018-01-08T06:47:33.194Z,13.77
2018-01-08T06:50:02.298Z,12.70
2018-01-08T06:52:31.380Z,14.73
2018-01-08T06:55:00.477Z,17.57
2018-01-08T06:57:28.792Z,13.27
2018-01-08T06:59:57.126Z,14.17
2018-01-08T07:02:25.433Z,17.67
2018-01-08T07:04:53.774Z,16.97
2018-01-08T07:07:22.113Z,25.67
2018-01-08T07:09:50.492Z,22.57
2018-01-08T07:12:18.810Z,12.00
2018-01-08T07:14:47.133Z,12.30
2018-01-08T07:17:15.502Z,9.97
2018-01-08T07:19:44.598Z,10.17
2018-01-08T07:22:13.697Z,15.40
2018-01-08T07:24:42.019Z,9.53
2018-01-08T07:27:10.377Z,14.63
2018-01-08T07:29:38.687Z,11.87
2018-01-08T07:32:07.016Z,13.30
2018-01-08T07:34:35.338Z,11.63
2018-01-08T07:37:03.688Z,14.93
2018-01-08T07:39:32.013Z,12.57
2018-01-08T07:42:00.348Z,14.23
2018-01-08T07:44:28.656Z,13.03
2018-01-08T07:46:57.017Z,15.20
2018-01-08T07:49:25.334Z,12.13
2018-01-08T07:51:53.677Z,13.57
2018-01-08T07:54:21.994Z,8.03
2018-01-08T07:56:50.295Z,15.47
2018-01-08T07:59:18.638Z,13.23
2018-01-08T08:01:46.958Z,11.37
2018-01-08T08:04:15.291Z,12.73
2018-01-08T08:06:43.609Z,11.33
2018-01-08T08:09:12.713Z,12.60
2018-01-08T08:11:41.044Z,10.63
2018-01-08T08:14:09.385Z,8.10
2018-01-08T08:16:37.709Z,13.83
2018-01-08T08:19:06.041Z,12.20
2018-01-08T08:21:34.356Z,11.13
2018-01-08T08:24:02.698Z,12.47
2018-01-08T08:26:31.005Z,11.93
2018-01-08T08:28:59.346Z,14.57
2018-01-08T08:31:27.661Z,13.47
2018-01-08T08:33:55.986Z,14.93
2018-01-08T08:36:25.082Z,8.07
2018-01-08T08:38:54.155Z,15.70
2018-01-08T08:41:22.486Z,14.30
2018-01-08T08:43:50.807Z,15.30
2018-01-08T08:46:19.145Z,13.73
2018-01-08T08:48:47.465Z,14.83
2018-01-08T08:51:15.815Z,14.33
2018-01-08T08:53:44.120Z,16.30
2018-01-08T08:56:12.461Z,9.37
2018-01-08T08:58:40.776Z,17.10
2018-01-08T09:01:09.100Z,13.13
2018-01-08T09:03:37.487Z,13.93
2018-01-08T09:06:06.560Z,11.17
2018-01-08T09:08:35.640Z,13.17
2018-01-08T09:11:03.962Z,10.37
2018-01-08T09:13:32.301Z,15.20
2018-01-08T09:16:00.613Z,12.13
2018-01-08T09:18:28.945Z,13.47
2018-01-08T09:20:57.256Z,18.00
2018-01-08T09:23:25.584Z,14.00
2018-01-08T09:25:53.904Z,14.00
2018-01-08T09:28:23.100Z,13.33
2018-01-08T09:30:52.184Z,17.03
2018-01-08T09:33:20.521Z,15.67
2018-01-08T09:35:48.832Z,12.60
2018-01-08T09:38:17.178Z,13.80
2018-01-08T09:40:45.516Z,15.20
2018-01-08T09:43:14.625Z,16.37
2018-01-08T09:45:42.938Z,14.10
2018-01-08T09:48:11.254Z,16.80
2018-01-08T09:50:39.588Z,11.13
2018-01-08T09:53:07.900Z,11.90
2018-01-08T09:55:36.235Z,13.57
2018-01-08T09:58:04.582Z,13.90
2018-01-08T10:00:33.692Z,14.83
2018-01-08T10:03:13.644Z,10.33
2018-01-08T10:05:59.801Z,15.50
2018-01-08T10:08:46.036Z,13.43
2018-01-08T10:11:32.226Z,17.10
2018-01-08T10:14:18.444Z,14.30
2018-01-08T10:17:04.483Z,12.43
2018-01-08T10:20:00.261Z,11.40
2018-01-08T10:22:29.117Z,13.00
2018-01-08T10:24:58.200Z,16.43
2018-01-08T10:27:26.571Z,14.57
2018-01-08T10:29:54.883Z,10.97
2018-01-08T10:32:23.982Z,8.77
2018-01-08T10:34:53.065Z,13.80
2018-01-08T10:37:22.258Z,14.73
2018-01-08T10:39:50.586Z,12.20
2018-01-08T10:42:24.453Z,12.10
2018-01-08T10:44:58.385Z,14.97
2018-01-08T10:47:32.264Z,12.70
2018-01-08T10:50:06.875Z,12.03
2018-01-08T10:52:35.221Z,11.10
2018-01-08T10:55:04.329Z,15.40
2018-01-08T10:57:32.658Z,14.00
2018-01-08T11:00:01.762Z,13.27
2018-01-08T11:02:35.705Z,15.07
2018-01-08T11:05:04.036Z,15.60
2018-01-08T11:07:33.163Z,14.27
2018-01-08T11:10:02.247Z,16.17
2018-01-08T11:12:30.565Z,10.57
2018-01-08T11:14:58.903Z,11.37
2018-01-08T11:17:27.228Z,10.07
2018-01-08T11:19:55.568Z,10.70
2018-01-08T11:22:23.889Z,9.50
2018-01-08T11:24:52.246Z,15.27
2018-01-08T11:27:20.568Z,15.00
2018-01-08T11:29:48.905Z,14.30
2018-01-08T11:32:17.214Z,13.87
2018-01-08T11:34:46.308Z,14.27
2018-01-08T11:37:14.656Z,12.97
2018-01-08T11:39:43.001Z,12.80
2018-01-08T11:42:11.352Z,10.87
2018-01-08T11:44:39.687Z,12.53
2018-01-08T11:47:08.074Z,13.93
2018-01-08T11:49:36.421Z,15.30
2018-01-08T11:52:04.787Z,16.10
2018-01-08T11:54:33.108Z,14.33
2018-01-08T11:57:01.448Z,15.03
2018-01-08T11:59:30.538Z,14.93
2018-01-08T12:01:59.675Z,15.20
2018-01-08T12:04:27.992Z,11.67
2018-01-08T12:06:56.334Z,14.30
2018-01-08T12:09:24.693Z,16.60
2018-01-08T12:11:53.118Z,10.00
2018-01-08T12:14:21.474Z,14.23
2018-01-08T12:16:49.808Z,16.90
2018-01-08T12:19:18.937Z,11.10
2018-01-08T12:21:47.263Z,13.20
2018-01-08T12:24:15.628Z,11.30
2018-01-08T12:26:43.947Z,14.60
2018-01-08T12:29:13.053Z,10.10
2018-01-08T12:31:41.372Z,12.37
2018-01-08T12:34:09.706Z,12.80
2018-01-08T12:36:38.816Z,12.27
2018-01-08T12:39:07.160Z,16.77
2018-01-08T12:41:35.473Z,13.60
2018-01-08T12:44:03.793Z,9.07
2018-01-08T12:46:32.148Z,10.27
2018-01-08T12:49:01.238Z,13.37
2018-01-08T12:51:29.580Z,14.33
2018-01-08T12:53:58.688Z,13.13
2018-01-08T12:56:27.030Z,14.97
2018-01-08T12:58:55.341Z,13.23
2018-01-08T13:01:23.680Z,9.30
2018-01-08T13:03:52.013Z,13.63
2018-01-08T13:06:20.352Z,8.40
2018-01-08T13:08:48.666Z,14.33
2018-01-08T13:11:17.028Z,12.47
2018-01-08T13:13:45.357Z,14.10
2018-01-08T13:16:13.671Z,11.97
2018-01-08T13:18:42.033Z,11.40
2018-01-08T13:21:10.380Z,13.50
2018-01-08T13:23:38.733Z,15.20
2018-01-08T13:26:07.067Z,13.27
2018-01-08T13:28:35.396Z,13.10
2018-01-08T13:31:03.714Z,11.13
2018-01-08T13:33:32.059Z,9.53
2018-01-08T13:36:00.408Z,11.40
2018-01-08T13:38:29.512Z,9.00
2018-01-08T13:40:57.829Z,10.40
2018-01-08T13:43:26.190Z,9.13
2018-01-08T13:45:54.547Z,12.90
2018-01-08T13:48:23.670Z,11.20
2018-01-08T13:50:52.046Z,13.67
2018-01-08T13:53:21.148Z,10.37
2018-01-08T13:55:49.569Z,12.30
2018-01-08T13:58:17.905Z,12.73
2018-01-08T14:00:46.252Z,11.50
2018-01-08T14:03:15.352Z,8.43
2018-01-08T14:05:44.474Z,10.47
2018-01-08T14:08:12.804Z,6.23
2018-01-08T14:10:41.162Z,8.60
2018-01-08T14:13:09.486Z,8.00
2018-01-08T14:15:38.602Z,11.00
2018-01-08T14:18:07.693Z,13.30
2018-01-08T14:20:36.037Z,10.67
2018-01-08T14:23:04.354Z,11.80
2018-01-08T14:25:32.708Z,8.20
2018-01-08T14:28:01.026Z,10.30
2018-01-08T14:30:29.382Z,8.63
2018-01-08T14:32:58.448Z,11.27
2018-01-08T14:35:26.769Z,12.00
2018-01-08T14:37:55.112Z,12.17
2018-01-08T14:40:23.465Z,14.77
2018-01-08T14:42:51.806Z,14.07
2018-01-08T14:45:20.153Z,10.10
2018-01-08T14:47:48.488Z,12.80
2018-01-08T14:50:16.820Z,10.07
2018-01-08T14:52:45.945Z,13.00
2018-01-08T14:55:14.258Z,10.27
2018-01-08T14:57:42.602Z,10.67
2018-01-08T15:00:10.927Z,8.37
2018-01-08T15:02:39.292Z,10.87
2018-01-08T15:05:07.622Z,12.43
2018-01-08T15:07:36.707Z,12.10
2018-01-08T15:10:05.105Z,9.67
2018-01-08T15:12:33.443Z,10.13
2018-01-08T15:15:01.806Z,11.40
2018-01-08T15:17:30.136Z,10.77
2018-01-08T15:19:59.245Z,9.90
2018-01-08T15:22:27.569Z,12.37
2018-01-08T15:24:55.914Z,10.80
2018-01-08T15:27:24.225Z,11.67
2018-01-08T15:29:52.551Z,8.80
2018-01-08T15:32:21.622Z,11.20
2018-01-08T15:34:49.964Z,12.03
2018-01-08T15:37:18.279Z,8.80
2018-01-08T15:39:48.117Z,10.30
2018-01-08T15:42:16.444Z,8.30
2018-01-08T15:44:44.778Z,11.70
2018-01-08T15:47:13.849Z,13.03
2018-01-08T15:49:42.184Z,10.80
2018-01-08T15:52:10.504Z,8.10
2018-01-08T15:54:38.824Z,9.67
2018-01-08T15:57:07.165Z,12.27
2018-01-08T15:59:35.476Z,10.40
2018-01-08T16:02:03.809Z,13.00
2018-01-08T16:04:32.128Z,11.20
2018-01-08T16:07:01.234Z,13.03
2018-01-08T16:09:29.554Z,12.20
2018-01-08T16:11:57.914Z,13.40
2018-01-08T16:14:26.221Z,10.10
2018-01-08T16:16:54.608Z,12.20
2018-01-08T16:19:22.913Z,11.30
2018-01-08T16:21:52.025Z,11.60
2018-01-08T16:24:20.345Z,10.07
2018-01-08T16:26:48.677Z,8.50
2018-01-08T16:29:17.002Z,10.27
2018-01-08T16:31:45.338Z,11.97
2018-01-08T16:34:13.654Z,13.27
2018-01-08T16:36:41.982Z,8.73
2018-01-08T16:39:11.057Z,9.77
2018-01-08T16:41:39.404Z,11.83
2018-01-08T16:44:07.719Z,11.53
2018-01-08T16:46:36.027Z,11.87
2018-01-08T16:49:04.413Z,6.63
2018-01-08T16:51:33.452Z,11.37
2018-01-08T16:54:01.788Z,12.33
2018-01-08T16:56:30.145Z,9.00
2018-01-08T16:58:59.242Z,11.90
2018-01-08T17:01:27.569Z,8.40
2018-01-08T17:03:55.898Z,7.30
2018-01-08T17:06:24.981Z,11.27
2018-01-08T17:08:54.083Z,10.73
2018-01-08T17:11:23.161Z,8.30
2018-01-08T17:13:51.530Z,11.77
2018-01-08T17:16:19.845Z,10.33
2018-01-08T17:18:48.196Z,6.97
2018-01-08T17:21:16.554Z,11.40
2018-01-08T17:23:44.864Z,6.70
2018-01-08T17:26:13.227Z,11.60
2018-01-08T17:28:41.521Z,8.97
2018-01-08T17:31:09.901Z,6.83
2018-01-08T17:33:38.220Z,9.93
2018-01-08T17:36:06.593Z,11.17
2018-01-08T17:38:34.912Z,12.37
2018-01-08T17:41:03.297Z,12.90
2018-01-08T17:43:31.650Z,12.60
2018-01-08T17:46:00.019Z,10.70
2018-01-08T17:48:28.343Z,11.03
2018-01-08T17:50:56.688Z,9.20
2018-01-08T17:53:24.996Z,8.33
2018-01-08T17:55:53.322Z,9.30
2018-01-08T17:58:21.632Z,12.37
2018-01-08T18:00:49.972Z,11.77
2018-01-08T18:03:18.287Z,10.33
2018-01-08T18:05:46.671Z,7.73
2018-01-08T18:08:15.027Z,11.47
2018-01-08T18:10:43.332Z,12.80
2018-01-08T18:13:11.706Z,10.07
2018-01-08T18:15:40.021Z,10.90
2018-01-08T18:18:09.164Z,10.10
2018-01-08T18:20:54.383Z,9.00
2018-01-08T18:23:22.698Z,10.47
2018-01-08T18:25:51.045Z,10.67
2018-01-08T18:28:20.135Z,7.77
2018-01-08T18:30:48.442Z,9.30
2018-01-08T18:33:17.610Z,10.07
2018-01-08T18:35:45.913Z,8.30
2018-01-08T18:38:14.247Z,7.10
2018-01-08T18:40:42.595Z,7.90
2018-01-08T18:43:10.995Z,9.30
2018-01-08T18:45:40.056Z,9.23
2018-01-08T18:48:08.388Z,9.53
2018-01-08T18:50:36.689Z,9.67
2018-01-08T18:53:05.070Z,7.77
2018-01-08T18:55:33.414Z,7.13
2018-01-08T18:58:01.714Z,8.80
2018-01-08T19:00:30.048Z,9.37
2018-01-08T19:02:58.402Z,8.80
2018-01-08T19:05:27.553Z,7.97
2018-01-08T19:07:55.881Z,8.23
2018-01-08T19:10:24.995Z,8.47
2018-01-08T19:12:53.299Z,7.90
2018-01-08T19:15:21.713Z,6.30
2018-01-08T19:17:50.048Z,8.83
2018-01-08T19:20:18.389Z,7.93
2018-01-08T19:22:47.506Z,7.00
2018-01-08T19:25:15.856Z,7.00
2018-01-08T19:27:44.999Z,8.00
2018-01-08T19:30:13.360Z,7.13
2018-01-08T19:32:41.772Z,6.73
2018-01-08T19:35:10.089Z,6.50
2018-01-08T19:37:38.454Z,6.17
2018-01-08T19:40:06.842Z,7.63
2018-01-08T19:42:35.213Z,7.03
2018-01-08T19:45:03.573Z,7.33
2018-01-08T19:47:31.939Z,7.30
2018-01-08T19:50:00.336Z,6.40
2018-01-08T19:52:28.718Z,4.07
2018-01-08T19:54:57.080Z,7.73
2018-01-08T19:57:25.443Z,6.43
2018-01-08T19:59:53.804Z,5.60
2018-01-08T20:02:22.959Z,6.47
2018-01-08T20:04:51.313Z,5.77
2018-01-08T20:07:19.623Z,7.60
2018-01-08T20:09:48.021Z,7.50
2018-01-08T20:12:17.085Z,6.67
2018-01-08T20:14:45.463Z,7.30
2018-01-08T20:17:13.826Z,7.50
2018-01-08T20:19:42.213Z,5.60
2018-01-08T20:22:10.560Z,6.33
2018-01-08T20:24:40.848Z,6.13
2018-01-08T20:27:09.198Z,5.70
2018-01-08T20:29:37.587Z,6.73
2018-01-08T20:32:05.943Z,6.03
2018-01-08T20:34:34.312Z,8.60
2018-01-08T20:37:02.660Z,7.73
2018-01-08T20:39:31.833Z,7.50
2018-01-08T20:42:00.192Z,5.87
2018-01-08T20:44:28.562Z,8.20
2018-01-08T20:46:56.889Z,6.33
2018-01-08T20:49:25.267Z,5.33
2018-01-08T20:51:53.655Z,7.53
2018-01-08T20:54:22.778Z,7.07
2018-01-08T20:56:51.143Z,6.00
2018-01-08T20:59:20.251Z,5.60
2018-01-08T21:01:48.629Z,7.37
2018-01-08T21:04:17.005Z,8.00
2018-01-08T21:06:45.378Z,7.70
2018-01-08T21:09:13.735Z,6.53
2018-01-08T21:11:42.105Z,8.87
2018-01-08T21:14:10.461Z,7.07
2018-01-08T21:16:38.836Z,8.53
2018-01-08T21:19:07.200Z,8.80
2018-01-08T21:21:35.576Z,7.10
2018-01-08T21:24:03.923Z,6.87
2018-01-08T21:26:33.074Z,7.97
2018-01-08T21:29:01.419Z,8.73
2018-01-08T21:31:29.785Z,8.77
2018-01-08T21:33:58.918Z,7.17
2018-01-08T21:36:27.260Z,6.40
2018-01-08T21:38:55.652Z,7.73
2018-01-08T21:41:24.026Z,9.57
2018-01-08T21:43:53.169Z,7.33
2018-01-08T21:46:21.535Z,5.73
2018-01-08T21:48:49.926Z,7.77
2018-01-08T21:51:18.276Z,6.33
2018-01-08T21:53:46.644Z,5.50
2018-01-08T21:56:15.762Z,6.30
2018-01-08T21:58:44.131Z,7.17
2018-01-08T22:01:12.497Z,8.93
2018-01-08T22:03:41.642Z,8.93
2018-01-08T22:06:10.007Z,8.70
2018-01-08T22:08:38.421Z,7.93
2018-01-08T22:11:06.724Z,9.40
2018-01-08T22:13:35.854Z,9.33
2018-01-08T22:16:04.266Z,7.03
2018-01-08T22:18:32.615Z,9.10
2018-01-08T22:21:00.993Z,8.80
2018-01-08T22:23:29.369Z,7.23
2018-01-08T22:25:57.705Z,8.90
2018-01-08T22:28:29.981Z,9.80
2018-01-08T22:30:59.123Z,9.33
2018-01-08T22:33:27.490Z,6.00
2018-01-08T22:35:55.880Z,9.67
2018-01-08T22:38:24.906Z,8.60
2018-01-08T22:40:53.294Z,8.40
2018-01-08T22:43:21.640Z,9.00
2018-01-08T22:45:50.085Z,8.80
2018-01-08T22:48:20.203Z,9.30
2018-01-08T22:50:49.290Z,7.97
2018-01-08T22:53:17.666Z,5.40
2018-01-08T22:55:46.017Z,9.00
2018-01-08T22:58:15.246Z,10.53
2018-01-08T23:00:43.615Z,10.17
2018-01-08T23:03:11.996Z,9.30
2018-01-08T23:05:40.359Z,10.10
2018-01-08T23:08:08.735Z,9.80
2018-01-08T23:10:37.089Z,8.93
2018-01-08T23:13:05.463Z,9.47
2018-01-08T23:15:33.816Z,9.13
2018-01-08T23:18:02.943Z,8.27
2018-01-08T23:20:31.300Z,9.50
2018-01-08T23:23:00.446Z,9.80
2018-01-08T23:25:28.784Z,7.67
2018-01-08T23:27:57.170Z,9.23
2018-01-08T23:30:25.515Z,8.10
2018-01-08T23:32:53.891Z,8.87
2018-01-08T23:35:22.266Z,7.53
2018-01-08T23:37:50.630Z,9.00
2018-01-08T23:40:18.983Z,7.10
2018-01-08T23:42:47.329Z,9.30
2018-01-08T23:45:16.482Z,8.80
2018-01-08T23:47:44.847Z,7.20
2018-01-08T23:50:13.172Z,7.73
2018-01-08T23:52:42.285Z,6.80
2018-01-08T23:55:11.503Z,8.83
2018-01-08T23:57:39.858Z,8.70
